createdAt,value
2022-08-26T00:01:54.095Z,313.77
2022-08-26T00:04:23.420Z,320.42
2022-08-26T00:06:50.207Z,317.42
2022-08-26T00:09:16.961Z,315.00
2022-08-26T00:11:47.261Z,311.45
2022-08-26T00:14:15.770Z,315.48
2022-08-26T00:16:47.545Z,312.83
2022-08-26T00:19:18.198Z,309.88
2022-08-26T00:21:46.463Z,310.20
2022-08-26T00:24:19.953Z,309.20
2022-08-26T00:26:47.249Z,308.08
2022-08-26T00:29:16.247Z,309.65
2022-08-26T00:31:45.287Z,310.40
2022-08-26T00:34:12.850Z,305.67
2022-08-26T00:36:40.953Z,304.73
2022-08-26T00:39:08.270Z,308.20
2022-08-26T00:41:37.792Z,306.27
2022-08-26T00:44:05.523Z,306.30
2022-08-26T00:46:37.099Z,307.33
2022-08-26T00:49:18.042Z,305.73
2022-08-26T00:51:50.834Z,305.15
2022-08-26T00:54:19.872Z,307.65
2022-08-26T00:57:02.507Z,300.33
2022-08-26T00:59:32.882Z,298.63
2022-08-26T01:02:00.435Z,300.08
2022-08-26T01:04:31.912Z,298.48
2022-08-26T01:06:59.185Z,297.00
2022-08-26T01:09:27.008Z,302.48
2022-08-26T01:11:57.513Z,300.27
2022-08-26T01:14:29.647Z,300.45
2022-08-26T01:16:56.373Z,298.27
2022-08-26T01:19:31.715Z,299.45
2022-08-26T01:22:03.112Z,296.67
2022-08-26T01:24:30.887Z,299.85
2022-08-26T01:27:01.607Z,302.88
2022-08-26T01:29:29.971Z,298.43
2022-08-26T01:31:57.624Z,301.42
2022-08-26T01:34:34.992Z,300.60
2022-08-26T01:37:07.437Z,301.88
2022-08-26T01:39:36.465Z,296.50
2022-08-26T01:42:10.306Z,297.15
2022-08-26T01:44:51.524Z,299.60
2022-08-26T01:47:24.360Z,300.35
2022-08-26T01:49:54.801Z,307.80
2022-08-26T01:52:28.176Z,308.48
2022-08-26T01:54:56.287Z,302.10
2022-08-26T01:57:25.329Z,300.40
2022-08-26T01:59:55.377Z,304.85
2022-08-26T02:02:23.545Z,293.95
2022-08-26T02:04:58.276Z,294.42
2022-08-26T02:07:26.844Z,301.17
2022-08-26T02:09:53.954Z,295.90
2022-08-26T02:12:20.725Z,301.30
2022-08-26T02:14:54.129Z,308.65
2022-08-26T02:17:26.246Z,304.25
2022-08-26T02:19:53.441Z,302.27
2022-08-26T02:22:24.637Z,304.83
2022-08-26T02:25:01.116Z,310.48
2022-08-26T02:27:32.792Z,312.92
2022-08-26T02:30:28.201Z,308.40
2022-08-26T02:32:57.748Z,312.85
2022-08-26T02:35:25.892Z,315.25
2022-08-26T02:37:53.096Z,315.13
2022-08-26T02:40:24.827Z,316.10
2022-08-26T02:42:52.908Z,312.27
2022-08-26T02:45:23.821Z,325.30
2022-08-26T02:47:52.386Z,329.92
2022-08-26T02:50:19.522Z,333.35
2022-08-26T02:52:46.313Z,342.70
2022-08-26T02:55:13.100Z,338.58
2022-08-26T02:57:39.703Z,341.60
2022-08-26T03:00:09.901Z,335.83
2022-08-26T03:02:40.125Z,333.90
2022-08-26T03:05:07.501Z,336.02
2022-08-26T03:07:34.512Z,334.52
2022-08-26T03:10:01.164Z,328.35
2022-08-26T03:12:34.304Z,326.10
2022-08-26T03:15:01.582Z,330.63
2022-08-26T03:17:28.229Z,325.95
2022-08-26T03:19:57.260Z,310.02
2022-08-26T03:22:25.193Z,322.50
2022-08-26T03:24:52.297Z,332.40
2022-08-26T03:27:19.101Z,332.38
2022-08-26T03:30:04.239Z,333.38
2022-08-26T03:32:31.322Z,337.93
2022-08-26T03:34:58.525Z,342.67
2022-08-26T03:37:25.153Z,336.17
2022-08-26T03:39:52.589Z,322.38
2022-08-26T03:42:21.538Z,324.75
2022-08-26T03:44:48.942Z,322.50
2022-08-26T03:47:15.824Z,317.83
2022-08-26T03:49:42.470Z,332.30
2022-08-26T03:52:09.441Z,324.10
2022-08-26T03:54:36.687Z,324.88
2022-08-26T03:57:06.297Z,316.55
2022-08-26T03:59:32.934Z,316.42
2022-08-26T04:01:59.822Z,310.23
2022-08-26T04:04:26.442Z,310.70
2022-08-26T04:07:00.965Z,322.00
2022-08-26T04:09:28.285Z,304.80
2022-08-26T04:11:58.666Z,307.05
2022-08-26T04:14:27.682Z,303.50
2022-08-26T04:16:55.399Z,306.02
2022-08-26T04:19:23.603Z,302.17
2022-08-26T04:21:53.402Z,303.40
2022-08-26T04:24:24.122Z,300.00
2022-08-26T04:26:51.088Z,312.17
2022-08-26T04:29:21.682Z,306.42
2022-08-26T04:31:48.583Z,303.88
2022-08-26T04:34:16.028Z,297.55
2022-08-26T04:36:43.809Z,297.67
2022-08-26T04:39:12.708Z,292.42
2022-08-26T04:41:39.999Z,291.35
2022-08-26T04:44:07.733Z,294.80
2022-08-26T04:46:35.186Z,303.02
2022-08-26T04:49:08.494Z,302.55
2022-08-26T04:51:36.211Z,297.10
2022-08-26T04:54:06.924Z,301.70
2022-08-26T04:56:37.482Z,309.33
2022-08-26T04:59:07.984Z,297.23
2022-08-26T05:01:46.228Z,297.45
2022-08-26T05:04:13.650Z,298.15
2022-08-26T05:06:43.598Z,291.27
2022-08-26T05:09:10.792Z,285.80
2022-08-26T05:11:38.401Z,292.02
2022-08-26T05:14:06.056Z,298.83
2022-08-26T05:16:32.716Z,283.15
2022-08-26T05:18:59.502Z,287.23
2022-08-26T05:21:29.170Z,281.38
2022-08-26T05:23:57.075Z,277.33
2022-08-26T05:26:29.554Z,280.90
2022-08-26T05:28:56.874Z,279.33
2022-08-26T05:31:28.531Z,280.80
2022-08-26T05:33:57.469Z,275.23
2022-08-26T05:36:28.169Z,272.90
2022-08-26T05:38:57.363Z,268.57
2022-08-26T05:41:34.588Z,274.42
2022-08-26T05:44:05.847Z,273.70
2022-08-26T05:46:33.866Z,278.20
2022-08-26T05:49:01.213Z,268.00
2022-08-26T05:51:27.866Z,278.63
2022-08-26T05:53:57.793Z,262.80
2022-08-26T05:56:26.117Z,258.80
2022-08-26T05:58:53.567Z,250.48
2022-08-26T06:01:23.665Z,253.32
2022-08-26T06:03:52.366Z,255.93
2022-08-26T06:06:27.460Z,265.77
2022-08-26T06:08:59.041Z,266.55
2022-08-26T06:11:27.848Z,257.85
2022-08-26T06:14:01.355Z,257.58
2022-08-26T06:16:31.375Z,257.33
2022-08-26T06:18:58.003Z,261.05
2022-08-26T06:21:29.131Z,260.52
2022-08-26T06:24:17.131Z,260.40
2022-08-26T06:26:50.355Z,256.27
2022-08-26T06:29:24.627Z,248.18
2022-08-26T06:31:52.876Z,253.70
2022-08-26T06:34:19.805Z,252.70
2022-08-26T06:36:47.284Z,247.80
2022-08-26T06:39:16.619Z,237.07
2022-08-26T06:41:45.018Z,253.13
2022-08-26T06:44:17.600Z,238.77
2022-08-26T06:46:45.909Z,234.38
2022-08-26T06:49:17.243Z,246.40
2022-08-26T06:51:44.242Z,249.95
2022-08-26T06:54:11.542Z,245.68
2022-08-26T06:56:42.675Z,241.50
2022-08-26T06:59:12.562Z,238.20
2022-08-26T07:01:45.675Z,250.75
2022-08-26T07:04:15.726Z,253.20
2022-08-26T07:06:48.931Z,236.73
2022-08-26T07:09:17.406Z,243.77
2022-08-26T07:11:45.008Z,240.07
2022-08-26T07:14:12.477Z,237.55
2022-08-26T07:16:41.216Z,228.77
2022-08-26T07:19:11.448Z,224.25
2022-08-26T07:21:41.541Z,230.53
2022-08-26T07:24:10.986Z,227.23
2022-08-26T07:26:39.281Z,231.90
2022-08-26T07:29:12.320Z,229.25
2022-08-26T07:31:39.570Z,225.43
2022-08-26T07:34:13.942Z,227.13
2022-08-26T07:36:41.354Z,218.40
2022-08-26T07:39:08.629Z,213.43
2022-08-26T07:41:36.511Z,208.02
2022-08-26T07:44:04.259Z,209.02
2022-08-26T07:46:31.192Z,205.68
2022-08-26T07:48:58.384Z,200.03
2022-08-26T07:51:25.795Z,189.30
2022-08-26T07:53:55.551Z,190.13
2022-08-26T07:56:24.030Z,166.32
2022-08-26T07:58:53.123Z,168.37
2022-08-26T08:01:21.599Z,161.30
2022-08-26T08:03:51.573Z,161.50
2022-08-26T08:06:19.769Z,167.15
2022-08-26T08:08:48.441Z,172.73
2022-08-26T08:11:21.607Z,177.20
2022-08-26T08:13:56.102Z,164.85
2022-08-26T08:16:32.233Z,160.38
2022-08-26T08:19:00.567Z,156.20
2022-08-26T08:21:27.897Z,154.70
2022-08-26T08:23:57.476Z,142.03
2022-08-26T08:26:26.213Z,134.52
2022-08-26T08:28:57.480Z,127.63
2022-08-26T08:34:16.971Z,108.25
2022-08-26T08:36:46.238Z,109.25
2022-08-26T08:39:13.589Z,99.13
2022-08-26T08:41:58.559Z,111.18
2022-08-26T08:47:06.088Z,81.78
2022-08-26T08:49:34.650Z,93.90
2022-08-26T08:52:10.818Z,80.10
2022-08-26T08:54:38.187Z,75.65
2022-08-26T08:57:14.974Z,75.28
2022-08-26T08:59:51.984Z,66.38
2022-08-26T09:02:46.617Z,54.70
2022-08-26T09:05:25.953Z,65.70
2022-08-26T09:07:59.375Z,67.28
2022-08-26T09:10:36.993Z,73.00
2022-08-26T09:13:16.967Z,78.70
2022-08-26T09:16:04.285Z,87.03
2022-08-26T09:18:49.779Z,65.88
2022-08-26T09:21:19.448Z,56.47
2022-08-26T09:23:49.535Z,52.63
2022-08-26T09:26:30.757Z,50.20
2022-08-26T09:29:02.140Z,50.30
2022-08-26T09:31:37.456Z,48.17
2022-08-26T09:34:18.306Z,41.35
2022-08-26T09:36:53.529Z,40.60
2022-08-26T09:39:23.871Z,47.83
2022-08-26T09:42:05.842Z,54.40
2022-08-26T09:44:33.563Z,43.03
2022-08-26T09:47:07.032Z,46.78
2022-08-26T09:49:36.399Z,42.90
2022-08-26T09:52:23.735Z,29.25
2022-08-26T09:55:03.485Z,24.38
2022-08-26T09:57:34.290Z,28.75
2022-08-26T10:00:03.060Z,33.60
2022-08-26T10:02:41.776Z,33.35
2022-08-26T10:05:26.330Z,27.47
2022-08-26T10:07:54.818Z,22.27
2022-08-26T10:10:39.496Z,21.52
2022-08-26T10:13:23.759Z,22.67
2022-08-26T10:15:56.367Z,25.08
2022-08-26T10:18:34.755Z,23.83
2022-08-26T10:21:10.949Z,21.70
2022-08-26T10:23:45.893Z,21.00
2022-08-26T10:26:33.644Z,19.38
2022-08-26T10:29:08.894Z,16.98
2022-08-26T10:31:40.985Z,12.45
2022-08-26T10:34:12.535Z,11.13
2022-08-26T10:37:13.678Z,9.67
2022-08-26T10:39:49.120Z,10.55
2022-08-26T10:42:26.035Z,9.93
2022-08-26T10:45:02.486Z,9.93
2022-08-26T10:47:37.792Z,6.53
2022-08-26T10:50:05.697Z,6.32
2022-08-26T10:52:46.297Z,8.70
2022-08-26T10:55:27.520Z,8.65
2022-08-26T10:58:28.039Z,10.00
2022-08-26T11:01:25.935Z,7.40
2022-08-26T11:04:10.234Z,8.52
2022-08-26T11:06:37.856Z,8.03
2022-08-26T11:09:08.562Z,5.63
2022-08-26T11:11:43.595Z,8.02
2022-08-26T11:14:16.290Z,9.30
2022-08-26T11:16:57.333Z,6.90
2022-08-26T11:19:59.044Z,8.13
2022-08-26T11:22:28.599Z,5.40
2022-08-26T11:24:55.357Z,5.53
2022-08-26T11:27:28.918Z,5.20
2022-08-26T11:30:05.289Z,6.25
2022-08-26T11:32:35.074Z,5.95
2022-08-26T11:35:06.291Z,6.90
2022-08-26T11:37:45.646Z,8.77
2022-08-26T11:46:09.211Z,6.70
2022-08-26T11:48:39.879Z,5.88
2022-08-26T11:51:32.902Z,7.22
2022-08-26T11:54:34.530Z,8.30
2022-08-26T11:57:11.818Z,6.70
2022-08-26T11:59:41.321Z,6.43
2022-08-26T12:02:17.979Z,6.20
2022-08-26T12:04:48.895Z,8.73
2022-08-26T12:07:23.746Z,5.85
2022-08-26T12:10:00.590Z,8.35
2022-08-26T12:12:35.214Z,8.48
2022-08-26T12:15:12.638Z,10.98
2022-08-26T12:17:40.704Z,6.93
2022-08-26T12:20:30.296Z,6.45
2022-08-26T12:23:00.239Z,8.23
2022-08-26T12:25:36.051Z,9.70
2022-08-26T12:28:07.154Z,5.90
2022-08-26T12:30:34.138Z,8.07
2022-08-26T12:33:23.040Z,6.25
2022-08-26T12:35:56.643Z,7.13
2022-08-26T12:38:26.212Z,6.93
2022-08-26T12:40:53.763Z,7.30
2022-08-26T12:43:41.945Z,9.30
2022-08-26T12:46:12.973Z,8.90
2022-08-26T12:48:44.040Z,8.30
2022-08-26T12:51:29.301Z,8.37
2022-08-26T12:54:00.108Z,7.95
2022-08-26T12:56:54.515Z,8.70
2022-08-26T12:59:27.138Z,6.82
2022-08-26T13:01:54.467Z,10.15
2022-08-26T13:04:43.050Z,10.10
2022-08-26T13:07:36.634Z,8.43
2022-08-26T13:10:03.582Z,7.57
2022-08-26T13:12:33.116Z,8.13
2022-08-26T13:15:01.605Z,9.00
2022-08-26T13:17:30.212Z,13.13
2022-08-26T13:20:03.328Z,9.48
2022-08-26T13:22:32.205Z,10.15
2022-08-26T13:25:01.851Z,11.27
2022-08-26T13:27:29.187Z,8.27
2022-08-26T13:29:57.824Z,15.57
2022-08-26T13:32:27.499Z,7.80
2022-08-26T13:34:56.472Z,8.83
2022-08-26T13:37:24.396Z,13.32
2022-08-26T13:40:01.889Z,9.75
2022-08-26T13:42:29.429Z,14.25
2022-08-26T13:44:58.254Z,16.08
2022-08-26T13:47:26.286Z,10.80
2022-08-26T13:49:55.403Z,11.55
2022-08-26T13:52:30.129Z,9.55
2022-08-26T13:55:01.678Z,14.52
2022-08-26T13:57:30.509Z,11.27
2022-08-26T14:00:00.805Z,11.50
2022-08-26T14:02:29.044Z,13.90
2022-08-26T14:04:57.938Z,9.77
2022-08-26T14:07:25.094Z,11.07
2022-08-26T14:09:51.970Z,6.57
2022-08-26T14:12:18.941Z,9.77
2022-08-26T14:14:47.686Z,12.55
2022-08-26T14:17:21.676Z,9.82
2022-08-26T14:19:50.081Z,7.70
2022-08-26T14:28:22.643Z,11.60
2022-08-26T14:30:59.333Z,16.67
2022-08-26T14:33:32.452Z,12.15
2022-08-26T14:36:19.548Z,13.55
2022-08-26T14:38:47.756Z,9.07
2022-08-26T14:41:19.720Z,16.13
2022-08-26T14:44:05.642Z,11.82
2022-08-26T14:46:43.558Z,14.93
2022-08-26T14:49:10.902Z,15.10
2022-08-26T14:51:38.583Z,11.00
2022-08-26T14:54:14.437Z,14.48
2022-08-26T14:56:58.726Z,11.98
2022-08-26T14:59:29.988Z,12.63
2022-08-26T15:01:59.026Z,15.13
2022-08-26T15:04:26.773Z,13.82
2022-08-26T15:06:55.574Z,16.40
2022-08-26T15:09:23.413Z,13.23
2022-08-26T15:11:50.783Z,17.65
2022-08-26T15:14:19.629Z,15.13
2022-08-26T15:16:52.593Z,14.57
2022-08-26T15:19:20.898Z,12.85
2022-08-26T15:21:48.072Z,19.02
2022-08-26T15:24:18.820Z,14.95
2022-08-26T15:26:46.822Z,21.10
2022-08-26T15:29:14.577Z,13.82
2022-08-26T15:31:43.765Z,11.85
2022-08-26T15:34:16.031Z,14.32
2022-08-26T15:36:46.803Z,20.23
2022-08-26T15:39:15.186Z,19.30
2022-08-26T15:41:42.155Z,16.77
2022-08-26T15:44:10.967Z,18.48
2022-08-26T15:46:38.710Z,16.13
2022-08-26T15:49:06.127Z,18.38
2022-08-26T15:51:35.935Z,18.92
2022-08-26T15:54:13.375Z,20.48
2022-08-26T15:56:43.692Z,21.67
2022-08-26T15:59:11.640Z,19.83
2022-08-26T16:01:39.306Z,22.33
2022-08-26T16:04:06.761Z,15.27
2022-08-26T16:06:36.287Z,19.67
2022-08-26T16:09:03.831Z,19.02
2022-08-26T16:11:31.274Z,22.70
2022-08-26T16:13:58.345Z,22.40
2022-08-26T16:16:25.210Z,35.72
2022-08-26T16:18:52.367Z,36.70
2022-08-26T16:21:22.487Z,69.78
2022-08-26T16:23:49.370Z,99.85
2022-08-26T16:26:19.754Z,73.45
2022-08-26T16:28:47.466Z,107.70
2022-08-26T16:31:16.660Z,106.28
2022-08-26T16:33:43.597Z,86.10
2022-08-26T16:36:13.883Z,100.67
2022-08-26T16:38:41.364Z,105.95
2022-08-26T16:41:08.922Z,108.75
2022-08-26T16:43:35.899Z,143.40
2022-08-26T16:46:07.553Z,150.60
2022-08-26T16:48:35.314Z,186.50
2022-08-26T16:51:02.342Z,192.98
2022-08-26T16:53:29.158Z,202.20
2022-08-26T16:55:55.870Z,194.77
2022-08-26T16:58:25.530Z,188.77
2022-08-26T17:00:52.502Z,176.97
2022-08-26T17:03:22.461Z,182.60
2022-08-26T17:05:49.232Z,166.43
2022-08-26T17:08:28.344Z,166.88
2022-08-26T17:10:56.572Z,187.57
2022-08-26T17:13:35.033Z,221.07
2022-08-26T17:16:05.138Z,223.90
2022-08-26T17:18:47.700Z,233.88
2022-08-26T17:21:14.926Z,241.73
2022-08-26T17:23:43.196Z,243.25
2022-08-26T17:26:12.073Z,237.93
2022-08-26T17:28:41.782Z,233.77
2022-08-26T17:31:13.278Z,241.13
2022-08-26T17:33:42.358Z,231.95
2022-08-26T17:36:12.597Z,237.32
2022-08-26T17:38:39.986Z,239.57
2022-08-26T17:41:11.196Z,261.15
2022-08-26T17:43:39.419Z,268.05
2022-08-26T17:46:08.414Z,271.77
2022-08-26T17:48:40.046Z,282.45
2022-08-26T17:51:15.425Z,285.38
2022-08-26T17:53:46.644Z,282.50
2022-08-26T17:56:15.665Z,296.35
2022-08-26T17:58:48.069Z,303.95
2022-08-26T18:01:20.511Z,293.95
2022-08-26T18:03:47.587Z,291.13
2022-08-26T18:06:15.864Z,288.55
2022-08-26T18:08:45.364Z,276.58
2022-08-26T18:11:15.929Z,292.80
2022-08-26T18:13:47.259Z,291.58
2022-08-26T18:16:16.250Z,290.15
2022-08-26T18:22:49.178Z,298.85
2022-08-26T18:25:17.436Z,285.50
2022-08-26T18:27:44.120Z,283.08
2022-08-26T18:42:23.557Z,300.75
2022-08-26T18:44:51.257Z,293.10
2022-08-26T18:47:18.046Z,288.73
2022-08-26T18:49:46.161Z,298.88
2022-08-26T18:52:13.001Z,297.67
2022-08-26T18:54:39.726Z,305.13
2022-08-26T18:57:06.585Z,302.10
2022-08-26T18:59:33.807Z,314.30
2022-08-26T19:02:00.792Z,305.87
2022-08-26T19:04:27.572Z,312.85
2022-08-26T19:06:54.235Z,305.92
2022-08-26T19:09:21.600Z,306.27
2022-08-26T19:11:50.006Z,303.40
2022-08-26T19:14:17.048Z,309.05
2022-08-26T19:16:46.198Z,304.25
2022-08-26T19:19:13.449Z,310.80
2022-08-26T19:21:40.765Z,308.43
2022-08-26T19:24:15.323Z,304.08
2022-08-26T19:26:46.715Z,305.70
2022-08-26T19:29:15.382Z,295.40
2022-08-26T19:31:43.938Z,310.25
2022-08-26T19:34:13.537Z,304.08
2022-08-26T19:36:43.068Z,292.40
2022-08-26T19:39:14.305Z,293.95
2022-08-26T19:41:41.461Z,280.20
2022-08-26T19:44:12.956Z,278.55
2022-08-26T19:46:39.908Z,285.67
2022-08-26T19:49:06.729Z,283.52
2022-08-26T19:51:35.207Z,291.42
2022-08-26T19:54:02.382Z,286.75
2022-08-26T19:56:31.900Z,293.63
2022-08-26T19:58:58.691Z,293.10
2022-08-26T20:01:26.204Z,297.90
2022-08-26T20:03:53.117Z,307.60
2022-08-26T20:06:20.846Z,312.77
2022-08-26T20:08:47.767Z,315.98
2022-08-26T20:11:18.710Z,322.00
2022-08-26T20:13:46.858Z,318.43
2022-08-26T20:16:14.230Z,318.40
2022-08-26T20:19:00.602Z,302.83
2022-08-26T20:21:29.487Z,286.63
2022-08-26T20:24:05.945Z,296.97
2022-08-26T20:26:35.237Z,280.13
2022-08-26T20:29:01.959Z,276.50
2022-08-26T20:31:29.676Z,279.92
2022-08-26T20:33:56.531Z,281.08
2022-08-26T20:36:26.813Z,278.70
2022-08-26T20:38:54.750Z,267.13
2022-08-26T20:41:22.588Z,266.98
2022-08-26T20:43:49.380Z,260.48
2022-08-26T20:46:17.968Z,265.88
2022-08-26T20:48:47.962Z,263.92
2022-08-26T20:51:16.627Z,269.83
2022-08-26T20:53:44.479Z,274.48
2022-08-26T20:56:13.406Z,268.75
2022-08-26T20:58:40.876Z,273.42
2022-08-26T21:01:08.956Z,275.67
2022-08-26T21:03:36.514Z,272.73
2022-08-26T21:06:03.914Z,281.70
2022-08-26T21:08:32.023Z,292.87
2022-08-26T21:11:00.914Z,285.50
2022-08-26T21:13:35.828Z,298.85
2022-08-26T21:16:11.463Z,300.13
2022-08-26T21:18:39.040Z,305.67
2022-08-26T21:21:09.820Z,311.38
2022-08-26T21:23:39.618Z,312.05
2022-08-26T21:26:15.050Z,314.60
2022-08-26T21:28:44.108Z,311.00
2022-08-26T21:31:14.128Z,317.02
2022-08-26T21:33:41.663Z,322.83
2022-08-26T21:36:10.082Z,319.30
2022-08-26T21:38:37.868Z,329.55
2022-08-26T21:41:19.305Z,328.13
2022-08-26T21:43:47.933Z,330.17
2022-08-26T21:46:17.426Z,327.63
2022-08-26T21:48:50.703Z,309.38
2022-08-26T21:51:20.366Z,318.23
2022-08-26T21:53:47.535Z,314.35
2022-08-26T21:56:16.157Z,306.60
2022-08-26T21:58:42.949Z,323.67
2022-08-26T22:01:16.119Z,326.50
2022-08-26T22:03:47.341Z,326.83
2022-08-26T22:06:23.535Z,335.13
2022-08-26T22:08:50.925Z,333.30
2022-08-26T22:11:18.886Z,325.70
2022-08-26T22:13:47.205Z,326.08
2022-08-26T22:16:14.421Z,322.70
2022-08-26T22:18:43.811Z,312.25
2022-08-26T22:21:16.643Z,329.13
2022-08-26T22:23:44.282Z,335.65
2022-08-26T22:26:13.118Z,335.83
2022-08-26T22:28:42.371Z,329.55
2022-08-26T22:31:14.370Z,329.30
2022-08-26T22:33:46.445Z,322.35
2022-08-26T22:36:20.514Z,328.08
2022-08-26T22:38:50.497Z,329.67
2022-08-26T22:41:18.312Z,323.50
2022-08-26T22:43:46.284Z,325.27
2022-08-26T22:46:21.808Z,328.98
2022-08-26T22:48:53.725Z,323.15
2022-08-26T22:51:22.153Z,317.50
2022-08-26T22:53:49.181Z,321.48
2022-08-26T22:56:18.481Z,326.33
2022-08-26T22:58:45.625Z,331.15
2022-08-26T23:01:16.937Z,327.17
2022-08-26T23:03:45.339Z,331.25
2022-08-26T23:06:12.255Z,331.83
2022-08-26T23:08:41.854Z,324.00
2022-08-26T23:11:14.351Z,327.95
2022-08-26T23:13:41.143Z,324.98
2022-08-26T23:16:11.084Z,318.20
2022-08-26T23:18:38.984Z,322.23
2022-08-26T23:21:06.025Z,321.42
2022-08-26T23:23:33.356Z,322.30
2022-08-26T23:26:03.232Z,318.53
2022-08-26T23:28:35.974Z,318.17
2022-08-26T23:31:02.808Z,319.25
2022-08-26T23:33:52.214Z,310.25
2022-08-26T23:36:22.960Z,311.42
2022-08-26T23:38:53.786Z,316.52
2022-08-26T23:41:22.470Z,316.00
2022-08-26T23:43:49.711Z,321.38
2022-08-26T23:46:16.667Z,322.30
2022-08-26T23:48:43.848Z,319.23
2022-08-26T23:51:33.961Z,320.20
2022-08-26T23:54:00.686Z,318.25
2022-08-26T23:56:29.146Z,324.77
2022-08-26T23:58:56.124Z,318.75
